createdAt,value
2019-05-12T00:00:03.128Z,9.20
2019-05-12T00:02:31.955Z,9.10
2019-05-12T00:05:00.824Z,9.10
2019-05-12T00:07:29.652Z,9.10
2019-05-12T00:09:58.523Z,9.10
2019-05-12T00:12:27.758Z,9.10
2019-05-12T00:14:58.919Z,9.10
2019-05-12T00:17:28.322Z,9.20
2019-05-12T00:19:54.644Z,9.10
2019-05-12T00:22:23.552Z,9.10
2019-05-12T00:24:52.379Z,9.20
2019-05-12T00:27:21.234Z,9.10
2019-05-12T00:29:50.086Z,9.00
2019-05-12T00:32:18.933Z,8.80
2019-05-12T00:34:48.146Z,8.70
2019-05-12T00:37:18.538Z,8.70
2019-05-12T00:39:47.831Z,8.90
2019-05-12T00:42:15.042Z,8.90
2019-05-12T00:47:14.066Z,8.90
2019-05-12T00:49:43.655Z,8.90
2019-05-12T00:52:12.484Z,8.90
2019-05-12T00:54:41.329Z,8.80
2019-05-12T00:57:10.216Z,8.80
2019-05-12T00:59:39.028Z,8.70
2019-05-12T01:02:08.148Z,8.60
2019-05-12T01:04:38.124Z,8.60
2019-05-12T01:07:05.575Z,8.60
2019-05-12T01:09:34.506Z,8.60
2019-05-12T01:12:03.300Z,8.40
2019-05-12T01:14:32.145Z,8.50
2019-05-12T01:17:00.963Z,8.40
2019-05-12T01:19:30.549Z,8.30
2019-05-12T01:21:59.399Z,8.20
2019-05-12T01:24:28.461Z,8.30
2019-05-12T01:29:28.173Z,8.30
2019-05-12T01:31:55.413Z,8.30
2019-05-12T01:34:24.247Z,8.10
2019-05-12T01:36:53.095Z,8.10
2019-05-12T01:39:22.723Z,8.10
2019-05-12T01:41:52.408Z,8.10
2019-05-12T01:44:21.901Z,7.90
2019-05-12T01:46:50.730Z,8.10
2019-05-12T01:49:19.564Z,8.00
2019-05-12T01:51:48.399Z,8.00
2019-05-12T01:54:18.850Z,8.00
2019-05-12T01:56:48.339Z,8.00
2019-05-12T01:59:15.652Z,8.00
2019-05-12T02:01:44.498Z,8.00
2019-05-12T02:04:13.329Z,8.00
2019-05-12T02:06:42.179Z,8.00
2019-05-12T02:09:12.792Z,8.00
2019-05-12T02:11:41.596Z,7.90
2019-05-12T02:14:10.456Z,7.90
2019-05-12T02:16:40.048Z,7.80
2019-05-12T02:19:09.624Z,7.80
2019-05-12T02:21:38.489Z,7.80
2019-05-12T02:24:12.188Z,7.80
2019-05-12T02:26:38.238Z,7.80
2019-05-12T02:29:07.722Z,7.70
2019-05-12T02:31:34.586Z,7.80
2019-05-12T02:34:05.648Z,7.80
2019-05-12T02:36:34.197Z,7.70
2019-05-12T02:39:01.143Z,7.70
2019-05-12T02:41:29.972Z,7.70
2019-05-12T02:43:58.815Z,7.70
2019-05-12T02:46:27.648Z,7.60
2019-05-12T02:48:56.484Z,7.60
2019-05-12T02:51:25.345Z,7.50
2019-05-12T02:53:54.655Z,7.50
2019-05-12T02:56:25.741Z,7.60
2019-05-12T02:58:54.321Z,7.50
2019-05-12T03:01:20.756Z,7.50
2019-05-12T03:03:49.596Z,7.40
2019-05-12T03:06:18.444Z,7.40
2019-05-12T03:08:47.285Z,7.40
2019-05-12T03:11:16.139Z,7.40
2019-05-12T03:13:45.079Z,7.30
2019-05-12T03:16:14.894Z,7.20
2019-05-12T03:18:44.925Z,7.20
2019-05-12T03:21:11.536Z,7.20
2019-05-12T03:26:09.827Z,7.30
2019-05-12T03:28:38.685Z,7.20
2019-05-12T03:31:08.531Z,7.20
2019-05-12T03:33:43.531Z,7.20
2019-05-12T03:36:09.148Z,7.20
2019-05-12T03:38:35.958Z,7.10
2019-05-12T03:41:05.293Z,7.10
2019-05-12T03:43:34.863Z,7.10
2019-05-12T03:46:00.653Z,7.10
2019-05-12T03:48:30.259Z,7.00
2019-05-12T03:50:59.823Z,7.10
2019-05-12T03:53:28.680Z,7.10
2019-05-12T03:55:57.560Z,7.10
2019-05-12T03:58:27.117Z,7.00
2019-05-12T04:00:55.991Z,7.00
2019-05-12T04:03:24.893Z,7.10
2019-05-12T04:05:55.401Z,7.20
2019-05-12T04:08:24.750Z,7.20
2019-05-12T04:10:54.755Z,7.20
2019-05-12T04:13:21.753Z,7.20
2019-05-12T04:18:19.997Z,7.30
2019-05-12T04:20:48.876Z,7.40
2019-05-12T04:23:17.746Z,7.50
2019-05-12T04:25:52.915Z,7.50
2019-05-12T04:28:15.449Z,7.60
2019-05-12T04:30:44.652Z,7.60
2019-05-12T04:33:15.556Z,7.60
2019-05-12T04:35:45.177Z,7.60
2019-05-12T04:38:15.013Z,7.70
2019-05-12T04:40:44.689Z,7.80
2019-05-12T04:43:10.016Z,7.80
2019-05-12T04:45:38.882Z,7.80
2019-05-12T04:48:07.733Z,7.90
2019-05-12T04:50:36.689Z,7.80
2019-05-12T04:53:06.202Z,7.80
2019-05-12T04:55:35.557Z,8.00
2019-05-12T05:00:34.957Z,8.00
2019-05-12T05:03:01.400Z,8.00
2019-05-12T05:05:30.246Z,7.90
2019-05-12T05:07:59.848Z,7.90
2019-05-12T05:10:29.437Z,8.10
2019-05-12T05:12:58.284Z,8.10
2019-05-12T05:15:27.129Z,8.00
2019-05-12T05:17:56.048Z,8.00
2019-05-12T05:20:24.876Z,8.00
2019-05-12T05:22:54.257Z,8.10
2019-05-12T05:25:23.646Z,8.10
2019-05-12T05:27:53.298Z,8.20
2019-05-12T05:30:21.092Z,8.40
2019-05-12T05:32:49.936Z,8.40
2019-05-12T05:35:18.784Z,8.40
2019-05-12T05:37:47.635Z,8.50
2019-05-12T05:42:45.936Z,8.50
2019-05-12T05:45:19.548Z,8.60
2019-05-12T05:47:44.278Z,8.60
2019-05-12T05:50:13.543Z,8.50
2019-05-12T05:52:43.277Z,8.60
2019-05-12T05:55:14.756Z,8.60
2019-05-12T05:57:39.036Z,8.60
2019-05-12T06:00:17.485Z,8.70
2019-05-12T06:02:40.366Z,8.60
2019-05-12T06:05:06.352Z,8.70
2019-05-12T06:07:39.136Z,8.70
2019-05-12T06:10:04.203Z,8.60
2019-05-12T06:12:40.371Z,8.70
2019-05-12T06:15:09.007Z,8.60
2019-05-12T06:17:36.550Z,8.70
2019-05-12T06:20:05.396Z,8.70
2019-05-12T06:22:34.973Z,8.70
2019-05-12T06:25:04.864Z,8.70
2019-05-12T06:27:33.665Z,8.60
2019-05-12T06:30:06.017Z,8.60
2019-05-12T06:32:30.356Z,8.70
2019-05-12T06:35:01.631Z,8.80
2019-05-12T06:37:28.030Z,8.70
2019-05-12T06:40:00.503Z,8.60
2019-05-12T06:42:25.742Z,8.60
2019-05-12T06:44:57.900Z,8.50
2019-05-12T06:47:24.173Z,8.40
2019-05-12T06:49:54.792Z,8.50
2019-05-12T06:52:23.660Z,8.50
2019-05-12T06:54:54.666Z,8.60
2019-05-12T06:57:25.419Z,8.60
2019-05-12T06:59:51.414Z,8.70
2019-05-12T07:02:17.172Z,8.80
2019-05-12T07:04:50.298Z,8.90
2019-05-12T07:07:14.880Z,8.80
2019-05-12T07:09:52.856Z,8.80
2019-05-12T07:12:13.762Z,9.00
2019-05-12T07:14:43.413Z,9.10
2019-05-12T07:17:15.673Z,9.10
2019-05-12T07:19:44.524Z,8.90
2019-05-12T07:22:21.908Z,9.00
2019-05-12T07:24:50.217Z,8.90
2019-05-12T07:27:13.942Z,9.00
2019-05-12T07:29:40.634Z,8.90
2019-05-12T07:32:16.564Z,9.10
2019-05-12T07:34:39.154Z,9.00
2019-05-12T07:37:07.990Z,8.90
2019-05-12T07:39:44.789Z,9.00
2019-05-12T07:42:05.747Z,9.30
2019-05-12T07:44:40.321Z,9.40
2019-05-12T07:47:03.711Z,9.40
2019-05-12T07:49:38.240Z,9.40
2019-05-12T07:52:03.443Z,9.20
2019-05-12T07:54:34.647Z,9.40
2019-05-12T07:57:05.381Z,9.50
2019-05-12T07:59:38.990Z,9.50
2019-05-12T08:01:56.498Z,9.50
2019-05-12T08:04:26.096Z,9.50
2019-05-12T08:06:54.993Z,9.50
2019-05-12T08:09:32.144Z,9.60
2019-05-12T08:11:54.077Z,9.70
2019-05-12T08:14:27.792Z,9.70
2019-05-12T08:16:50.364Z,9.80
2019-05-12T08:19:24.020Z,9.70
2019-05-12T08:21:49.332Z,9.90
2019-05-12T08:24:17.645Z,10.00
2019-05-12T08:26:49.613Z,9.90
2019-05-12T08:29:21.353Z,9.90
2019-05-12T08:31:44.954Z,10.00
2019-05-12T08:34:13.799Z,10.00
2019-05-12T08:36:44.952Z,10.00
2019-05-12T08:39:18.119Z,10.10
2019-05-12T08:41:40.412Z,10.10
2019-05-12T08:44:09.960Z,10.10
2019-05-12T08:46:45.660Z,10.00
2019-05-12T08:49:07.639Z,10.00
2019-05-12T08:51:36.503Z,10.00
2019-05-12T08:54:08.098Z,10.00
2019-05-12T08:56:34.923Z,10.00
2019-05-12T08:59:04.366Z,10.20
2019-05-12T09:01:34.353Z,10.40
2019-05-12T09:04:06.459Z,10.10
2019-05-12T09:06:30.336Z,10.10
2019-05-12T09:08:59.178Z,10.10
2019-05-12T09:11:28.019Z,10.30
2019-05-12T09:14:00.322Z,10.50
2019-05-12T09:16:26.498Z,10.50
2019-05-12T09:18:55.496Z,10.70
2019-05-12T09:21:31.452Z,10.70
2019-05-12T09:23:55.850Z,10.90
2019-05-12T09:26:24.962Z,10.70
2019-05-12T09:28:51.492Z,10.70
2019-05-12T09:31:25.497Z,11.00
2019-05-12T09:33:49.915Z,11.20
2019-05-12T09:36:21.532Z,11.10
2019-05-12T09:38:47.636Z,10.90
2019-05-12T09:41:16.496Z,11.00
2019-05-12T09:43:50.165Z,10.70
2019-05-12T09:46:14.534Z,10.60
2019-05-12T09:51:13.424Z,11.00
2019-05-12T09:53:42.740Z,10.70
2019-05-12T09:56:10.176Z,10.80
2019-05-12T09:58:39.033Z,10.90
2019-05-12T10:01:07.895Z,10.90
2019-05-12T10:03:39.839Z,10.90
2019-05-12T10:06:05.610Z,11.10
2019-05-12T10:08:35.829Z,11.50
2019-05-12T10:11:03.743Z,11.40
2019-05-12T10:13:32.176Z,11.70
2019-05-12T10:16:04.927Z,11.40
2019-05-12T10:18:30.589Z,11.20
2019-05-12T10:20:59.429Z,11.20
2019-05-12T10:23:29.005Z,11.50
2019-05-12T10:26:01.360Z,11.80
2019-05-12T10:28:26.682Z,12.00
2019-05-12T10:30:56.973Z,12.20
2019-05-12T10:33:24.376Z,11.90
2019-05-12T10:35:54.203Z,11.90
2019-05-12T10:38:23.997Z,12.00
2019-05-12T10:40:50.936Z,12.20
2019-05-12T10:43:19.773Z,12.20
2019-05-12T10:45:48.623Z,12.00
2019-05-12T10:48:17.491Z,11.70
2019-05-12T10:50:46.343Z,11.90
2019-05-12T10:53:17.744Z,12.20
2019-05-12T10:55:44.171Z,12.20
2019-05-12T10:58:14.524Z,12.40
2019-05-12T11:00:44.188Z,12.30
2019-05-12T11:03:12.427Z,12.30
2019-05-12T11:05:39.427Z,12.30
2019-05-12T11:08:11.087Z,12.70
2019-05-12T11:10:37.137Z,12.90
2019-05-12T11:13:08.509Z,12.90
2019-05-12T11:15:39.489Z,12.50
2019-05-12T11:18:03.697Z,12.70
2019-05-12T11:20:34.395Z,12.90
2019-05-12T11:23:03.390Z,13.00
2019-05-12T11:27:59.625Z,13.20
2019-05-12T11:30:28.476Z,13.30
2019-05-12T11:32:59.729Z,13.50
2019-05-12T11:35:26.176Z,13.60
2019-05-12T11:37:55.026Z,13.90
2019-05-12T11:40:24.045Z,13.90
2019-05-12T11:42:55.679Z,14.00
2019-05-12T11:45:21.553Z,14.30
2019-05-12T11:47:50.389Z,14.60
2019-05-12T11:50:19.976Z,15.10
2019-05-12T11:52:51.017Z,15.10
2019-05-12T11:55:21.397Z,14.70
2019-05-12T11:57:47.258Z,14.50
2019-05-12T12:00:16.103Z,14.60
2019-05-12T12:02:44.941Z,14.60
2019-05-12T12:05:14.522Z,15.10
2019-05-12T12:07:49.057Z,15.20
2019-05-12T12:10:14.110Z,14.80
2019-05-12T12:12:45.292Z,14.30
2019-05-12T12:15:10.693Z,14.80
2019-05-12T12:17:39.538Z,15.00
2019-05-12T12:20:08.401Z,15.20
2019-05-12T12:22:43.450Z,14.50
2019-05-12T12:25:13.578Z,14.40
2019-05-12T12:27:40.596Z,14.50
2019-05-12T12:30:18.620Z,14.80
2019-05-12T12:32:39.034Z,14.80
2019-05-12T12:35:11.915Z,14.80
2019-05-12T12:37:36.708Z,14.70
2019-05-12T12:40:05.534Z,15.00
2019-05-12T12:42:36.912Z,15.00
2019-05-12T12:45:04.360Z,14.90
2019-05-12T12:47:37.999Z,14.80
2019-05-12T12:52:33.269Z,14.80
2019-05-12T12:55:06.826Z,15.00
2019-05-12T12:57:28.802Z,15.30
2019-05-12T13:02:27.852Z,15.40
2019-05-12T13:04:56.683Z,15.60
2019-05-12T13:07:25.513Z,16.00
2019-05-12T13:10:07.189Z,15.90
2019-05-12T13:12:24.704Z,15.60
2019-05-12T13:14:53.547Z,15.60
2019-05-12T13:17:29.058Z,15.90
2019-05-12T13:19:54.754Z,16.20
2019-05-12T13:22:20.107Z,16.40
2019-05-12T13:24:48.953Z,16.10
2019-05-12T13:27:19.197Z,16.20
2019-05-12T13:29:46.658Z,16.50
2019-05-12T13:32:16.235Z,16.00
2019-05-12T13:37:19.184Z,16.50
2019-05-12T13:39:55.298Z,16.50
2019-05-12T13:42:13.651Z,16.60
2019-05-12T13:44:43.186Z,16.40
2019-05-12T13:47:09.984Z,16.50
2019-05-12T13:49:42.816Z,16.50
2019-05-12T13:52:07.664Z,16.50
2019-05-12T13:54:36.503Z,16.40
2019-05-12T13:57:11.731Z,16.50
2019-05-12T13:59:34.241Z,16.80
2019-05-12T14:02:03.353Z,16.80
2019-05-12T14:04:33.677Z,16.70
2019-05-12T14:07:00.793Z,17.20
2019-05-12T14:09:29.631Z,17.20
2019-05-12T14:11:58.483Z,17.00
2019-05-12T14:14:27.350Z,17.00
2019-05-12T14:16:59.417Z,17.20
2019-05-12T14:19:25.042Z,16.80
2019-05-12T14:21:54.320Z,16.90
2019-05-12T14:24:23.302Z,16.80
2019-05-12T14:26:53.413Z,16.70
2019-05-12T14:29:25.402Z,17.30
2019-05-12T14:31:54.517Z,17.90
2019-05-12T14:34:20.790Z,17.40
2019-05-12T14:36:47.683Z,17.30
2019-05-12T14:39:16.533Z,17.30
2019-05-12T14:41:53.173Z,17.40
2019-05-12T14:44:14.251Z,17.30
2019-05-12T14:46:46.334Z,17.40
2019-05-12T14:49:14.027Z,16.80
2019-05-12T14:51:40.757Z,17.10
2019-05-12T14:54:09.603Z,17.00
2019-05-12T14:56:38.433Z,17.20
2019-05-12T14:59:07.266Z,17.10
2019-05-12T15:01:51.592Z,17.90
2019-05-12T15:04:05.292Z,18.00
2019-05-12T15:06:34.064Z,17.80
2019-05-12T15:09:03.361Z,17.90
2019-05-12T15:11:31.487Z,17.90
2019-05-12T15:14:00.380Z,17.80
2019-05-12T15:16:31.853Z,17.70
2019-05-12T15:18:58.033Z,17.70
2019-05-12T15:21:31.180Z,17.50
2019-05-12T15:23:56.489Z,17.40
2019-05-12T15:26:25.325Z,17.20
2019-05-12T15:28:54.466Z,17.40
2019-05-12T15:31:23.747Z,17.80
2019-05-12T15:33:52.533Z,18.00
2019-05-12T15:36:21.369Z,17.90
2019-05-12T15:38:55.535Z,18.00
2019-05-12T15:41:20.232Z,18.20
2019-05-12T15:43:49.046Z,18.10
2019-05-12T15:46:16.769Z,18.20
2019-05-12T15:48:45.612Z,18.30
2019-05-12T15:51:15.191Z,18.40
2019-05-12T15:53:44.547Z,18.40
2019-05-12T15:56:21.031Z,18.30
2019-05-12T15:58:44.180Z,18.20
2019-05-12T16:01:13.878Z,18.20
2019-05-12T16:03:40.242Z,18.00
2019-05-12T16:06:11.710Z,18.50
2019-05-12T16:08:37.973Z,18.30
2019-05-12T16:11:06.811Z,18.10
2019-05-12T16:13:35.657Z,18.10
2019-05-12T16:16:06.683Z,18.00
2019-05-12T16:18:34.471Z,18.00
2019-05-12T16:21:07.276Z,17.90
2019-05-12T16:23:33.968Z,18.00
2019-05-12T16:26:01.563Z,18.10
2019-05-12T16:28:30.198Z,18.00
2019-05-12T16:31:04.287Z,17.90
2019-05-12T16:33:27.903Z,17.70
2019-05-12T16:35:59.889Z,17.60
2019-05-12T16:38:26.441Z,17.50
2019-05-12T16:40:55.258Z,17.50
2019-05-12T16:43:24.115Z,17.50
2019-05-12T16:45:53.799Z,17.30
2019-05-12T16:48:30.184Z,17.50
2019-05-12T16:50:51.451Z,17.70
2019-05-12T16:53:22.053Z,17.50
2019-05-12T16:55:50.019Z,17.60
2019-05-12T16:58:23.321Z,17.70
2019-05-12T17:00:49.715Z,17.70
2019-05-12T17:03:18.198Z,17.70
2019-05-12T17:05:44.878Z,17.60
2019-05-12T17:08:14.022Z,17.10
2019-05-12T17:10:46.965Z,16.80
2019-05-12T17:13:13.474Z,16.50
2019-05-12T17:15:40.277Z,16.30
2019-05-12T17:18:09.133Z,16.10
2019-05-12T17:20:40.888Z,16.00
2019-05-12T17:23:07.615Z,15.80
2019-05-12T17:25:36.485Z,15.80
2019-05-12T17:28:05.796Z,15.80
2019-05-12T17:30:34.900Z,15.70
2019-05-12T17:33:05.182Z,15.70
2019-05-12T17:35:34.963Z,15.60
2019-05-12T17:38:04.084Z,15.60
2019-05-12T17:40:33.694Z,15.60
2019-05-12T17:43:09.177Z,15.40
2019-05-12T17:45:28.747Z,15.40
2019-05-12T17:48:02.935Z,15.30
2019-05-12T17:50:26.472Z,15.30
2019-05-12T17:52:58.988Z,15.20
2019-05-12T17:55:24.146Z,15.20
2019-05-12T17:57:56.495Z,15.00
2019-05-12T18:00:23.483Z,14.90
2019-05-12T18:02:56.255Z,15.00
2019-05-12T18:05:19.587Z,14.90
2019-05-12T18:07:50.932Z,14.90
2019-05-12T18:10:17.246Z,14.70
2019-05-12T18:12:46.108Z,14.60
2019-05-12T18:15:15.472Z,14.60
2019-05-12T18:17:47.386Z,14.60
2019-05-12T18:20:14.391Z,14.50
2019-05-12T18:22:44.863Z,14.50
2019-05-12T18:25:11.174Z,14.50
2019-05-12T18:27:44.529Z,14.40
2019-05-12T18:30:08.895Z,14.40
2019-05-12T18:32:37.753Z,14.30
2019-05-12T18:35:06.605Z,14.30
2019-05-12T18:37:35.459Z,14.30
2019-05-12T18:40:04.302Z,14.30
2019-05-12T18:42:33.696Z,14.20
2019-05-12T18:45:11.866Z,14.10
2019-05-12T18:47:36.302Z,14.00
2019-05-12T18:50:01.211Z,13.90
2019-05-12T18:52:39.291Z,14.00
2019-05-12T18:54:58.959Z,13.90
2019-05-12T18:57:27.794Z,13.90
2019-05-12T19:00:03.438Z,13.80
2019-05-12T19:02:28.500Z,13.80
2019-05-12T19:04:54.348Z,13.80
2019-05-12T19:07:38.650Z,13.70
2019-05-12T19:09:52.059Z,13.70
2019-05-12T19:12:31.764Z,13.50
2019-05-12T19:14:52.516Z,13.60
2019-05-12T19:17:19.380Z,13.50
2019-05-12T19:19:52.147Z,13.50
2019-05-12T19:22:17.114Z,13.40
2019-05-12T19:24:50.084Z,13.40
2019-05-12T19:27:16.551Z,13.30
2019-05-12T19:29:48.346Z,13.20
2019-05-12T19:32:14.338Z,13.20
2019-05-12T19:34:43.353Z,13.20
2019-05-12T19:37:14.143Z,13.00
2019-05-12T19:39:40.531Z,13.00
2019-05-12T19:42:10.441Z,13.00
2019-05-12T19:44:38.251Z,12.90
2019-05-12T19:47:07.833Z,12.90
2019-05-12T19:49:46.660Z,12.90
2019-05-12T19:52:05.547Z,12.80
2019-05-12T19:54:36.849Z,12.80
2019-05-12T19:57:03.288Z,12.80
2019-05-12T19:59:34.155Z,12.80
2019-05-12T20:02:01.030Z,12.80
2019-05-12T20:04:33.867Z,12.70
2019-05-12T20:07:00.245Z,12.80
2019-05-12T20:09:29.077Z,12.70
2019-05-12T20:12:01.219Z,12.70
2019-05-12T20:14:26.800Z,12.60
2019-05-12T20:16:55.646Z,12.60
2019-05-12T20:19:25.540Z,12.60
2019-05-12T20:21:54.317Z,12.50
2019-05-12T20:24:23.682Z,12.50
2019-05-12T20:26:53.717Z,12.50
2019-05-12T20:29:26.617Z,12.50
2019-05-12T20:31:49.532Z,12.50
2019-05-12T20:34:18.377Z,12.40
2019-05-12T20:36:47.271Z,12.30
2019-05-12T20:39:21.728Z,12.30
2019-05-12T20:44:17.323Z,12.30
2019-05-12T20:46:43.346Z,12.30
2019-05-12T20:49:14.735Z,12.20
2019-05-12T20:51:40.955Z,12.20
2019-05-12T20:56:39.277Z,12.10
2019-05-12T20:59:08.130Z,12.10
2019-05-12T21:01:37.003Z,12.10
2019-05-12T21:04:07.723Z,12.10
2019-05-12T21:06:41.813Z,12.00
2019-05-12T21:09:04.304Z,11.90
2019-05-12T21:11:33.843Z,11.90
2019-05-12T21:14:09.929Z,11.90
2019-05-12T21:16:34.641Z,11.90
2019-05-12T21:19:07.564Z,11.70
2019-05-12T21:21:34.351Z,11.60
2019-05-12T21:23:59.493Z,11.60
2019-05-12T21:26:28.404Z,11.50
2019-05-12T21:28:55.130Z,11.40
2019-05-12T21:31:26.714Z,11.50
2019-05-12T21:33:53.500Z,11.50
2019-05-12T21:36:24.467Z,11.50
2019-05-12T21:38:50.568Z,11.40
2019-05-12T21:41:21.837Z,11.40
2019-05-12T21:43:48.980Z,11.30
2019-05-12T21:46:17.828Z,11.30
2019-05-12T21:48:46.665Z,11.20
2019-05-12T21:51:19.898Z,11.10
2019-05-12T21:53:44.391Z,11.10
2019-05-12T21:56:13.944Z,11.00
2019-05-12T21:58:53.357Z,11.00
2019-05-12T22:01:13.551Z,11.00
2019-05-12T22:03:45.901Z,11.00
2019-05-12T22:06:19.072Z,10.90
2019-05-12T22:08:38.253Z,10.90
2019-05-12T22:11:11.283Z,10.90
2019-05-12T22:13:35.951Z,10.80
2019-05-12T22:16:04.801Z,10.80
2019-05-12T22:18:33.651Z,10.80
2019-05-12T22:21:06.105Z,10.70
2019-05-12T22:23:33.152Z,10.80
2019-05-12T22:26:00.561Z,10.70
2019-05-12T22:28:29.832Z,10.80
2019-05-12T22:30:58.713Z,10.80
2019-05-12T22:33:27.551Z,10.60
2019-05-12T22:36:05.214Z,10.50
2019-05-12T22:38:25.299Z,10.50
2019-05-12T22:40:59.402Z,10.50
2019-05-12T22:43:23.924Z,10.50
2019-05-12T22:48:37.079Z,10.50
2019-05-12T22:50:59.622Z,10.30
2019-05-12T22:53:30.061Z,10.30
2019-05-12T22:56:02.241Z,10.20
2019-05-12T22:58:26.131Z,10.30
2019-05-12T23:01:00.740Z,10.20
2019-05-12T23:03:25.341Z,10.20
2019-05-12T23:05:59.747Z,10.20
2019-05-12T23:08:24.686Z,10.20
2019-05-12T23:10:53.995Z,10.20
2019-05-12T23:13:23.800Z,10.10
2019-05-12T23:15:51.877Z,10.20
2019-05-12T23:18:28.661Z,10.30
2019-05-12T23:20:49.554Z,10.10
2019-05-12T23:23:18.967Z,10.00
2019-05-12T23:25:51.941Z,9.90
2019-05-12T23:28:16.093Z,9.90
2019-05-12T23:30:48.464Z,9.90
2019-05-12T23:33:14.510Z,9.80
2019-05-12T23:35:44.366Z,9.70
2019-05-12T23:38:18.877Z,9.70
2019-05-12T23:40:43.261Z,9.60
2019-05-12T23:43:09.864Z,9.70
2019-05-12T23:45:38.713Z,9.70
2019-05-12T23:48:07.546Z,9.70
2019-05-12T23:50:36.440Z,9.70
2019-05-12T23:53:05.993Z,9.60
2019-05-12T23:55:35.594Z,9.60
2019-05-12T23:58:04.565Z,9.60
